createdAt,value
2022-12-03T00:00:37.084Z,97879.63
2022-12-03T00:03:03.868Z,97893.00
2022-12-03T00:05:30.874Z,97889.94
2022-12-03T00:07:57.585Z,97888.75
2022-12-03T00:10:24.282Z,97884.41
2022-12-03T00:12:50.890Z,97888.50
2022-12-03T00:15:17.530Z,97885.25
2022-12-03T00:17:44.180Z,97885.53
2022-12-03T00:20:10.815Z,97884.78
2022-12-03T00:22:37.580Z,97885.13
2022-12-03T00:25:04.284Z,97886.94
2022-12-03T00:27:30.955Z,97891.59
2022-12-03T00:29:57.599Z,97888.75
2022-12-03T00:32:24.194Z,97899.78
2022-12-03T00:34:50.989Z,97899.78
2022-12-03T00:37:17.838Z,97903.50
2022-12-03T00:39:44.431Z,97904.44
2022-12-03T00:42:11.081Z,97909.44
2022-12-03T00:44:37.765Z,97908.03
2022-12-03T00:47:04.464Z,97915.72
2022-12-03T00:49:31.350Z,97919.13
2022-12-03T00:51:57.963Z,97911.59
2022-12-03T00:54:30.096Z,97912.78
2022-12-03T00:56:58.420Z,97909.94
2022-12-03T00:59:25.051Z,97908.38
2022-12-03T01:01:51.785Z,97910.69
2022-12-03T01:04:18.586Z,97903.53
2022-12-03T01:06:45.330Z,97908.78
2022-12-03T01:09:11.973Z,97910.88
2022-12-03T01:11:38.634Z,97910.56
2022-12-03T01:14:05.275Z,97909.34
2022-12-03T01:16:31.942Z,97904.00
2022-12-03T01:18:58.562Z,97901.38
2022-12-03T01:21:25.223Z,97897.25
2022-12-03T01:23:51.866Z,97897.63
2022-12-03T01:26:18.565Z,97901.81
2022-12-03T01:28:45.177Z,97903.13
2022-12-03T01:31:11.953Z,97896.81
2022-12-03T01:33:38.586Z,97902.25
2022-12-03T01:36:05.254Z,97903.66
2022-12-03T01:38:31.900Z,97902.56
2022-12-03T01:40:58.547Z,97902.06
2022-12-03T01:43:25.214Z,97907.13
2022-12-03T01:45:51.898Z,97909.09
2022-12-03T01:48:18.551Z,97912.88
2022-12-03T01:50:45.197Z,97909.25
2022-12-03T01:53:11.826Z,97913.56
2022-12-03T01:55:38.443Z,97911.66
2022-12-03T01:58:05.078Z,97908.41
2022-12-03T02:00:31.679Z,97907.00
2022-12-03T02:02:58.351Z,97911.81
2022-12-03T02:05:24.983Z,97911.13
2022-12-03T02:07:51.667Z,97917.13
2022-12-03T02:10:18.356Z,97911.19
2022-12-03T02:12:44.956Z,97909.50
2022-12-03T02:15:11.627Z,97907.34
2022-12-03T02:17:38.267Z,97907.19
2022-12-03T02:20:04.913Z,97906.66
2022-12-03T02:22:31.576Z,97910.47
2022-12-03T02:24:58.931Z,97910.28
2022-12-03T02:27:25.610Z,97914.06
2022-12-03T02:29:52.282Z,97919.88
2022-12-03T02:32:18.947Z,97917.09
2022-12-03T02:34:45.633Z,97926.56
2022-12-03T02:37:12.254Z,97930.72
2022-12-03T02:39:38.918Z,97936.97
2022-12-03T02:42:05.584Z,97936.59
2022-12-03T02:44:32.235Z,97942.22
2022-12-03T02:46:58.957Z,97936.69
2022-12-03T02:49:25.634Z,97947.03
2022-12-03T02:51:52.319Z,97944.81
2022-12-03T02:54:18.966Z,97943.50
2022-12-03T02:56:45.587Z,97940.00
2022-12-03T02:59:12.199Z,97940.53
2022-12-03T03:01:38.981Z,97936.56
2022-12-03T03:04:05.779Z,97935.88
2022-12-03T03:06:32.415Z,97931.25
2022-12-03T03:08:59.126Z,97929.16
2022-12-03T03:11:25.762Z,97930.25
2022-12-03T03:13:52.419Z,97928.84
2022-12-03T03:16:19.109Z,97936.09
2022-12-03T03:18:45.729Z,97934.19
2022-12-03T03:21:12.381Z,97945.16
2022-12-03T03:23:39.020Z,97942.69
2022-12-03T03:26:05.672Z,97948.56
2022-12-03T03:28:32.295Z,97951.25
2022-12-03T03:30:58.925Z,97956.84
2022-12-03T03:33:25.654Z,97956.59
2022-12-03T03:35:52.291Z,97953.66
2022-12-03T03:38:19.003Z,97945.34
2022-12-03T03:40:45.603Z,97942.72
2022-12-03T03:43:12.215Z,97937.66
2022-12-03T03:45:38.834Z,97943.06
2022-12-03T03:48:05.461Z,97936.28
2022-12-03T03:50:32.502Z,97932.22
2022-12-03T03:52:59.119Z,97928.41
2022-12-03T03:55:25.710Z,97930.81
2022-12-03T03:57:52.378Z,97929.25
2022-12-03T04:00:19.062Z,97931.59
2022-12-03T04:02:45.735Z,97920.31
2022-12-03T04:05:12.378Z,97921.22
2022-12-03T04:07:38.994Z,97922.81
2022-12-03T04:10:05.653Z,97919.47
2022-12-03T04:12:32.329Z,97917.28
2022-12-03T04:14:58.956Z,97924.13
2022-12-03T04:17:25.585Z,97926.31
2022-12-03T04:19:52.253Z,97922.94
2022-12-03T04:22:18.893Z,97927.84
2022-12-03T04:24:45.511Z,97925.84
2022-12-03T04:27:12.123Z,97925.84
2022-12-03T04:29:38.738Z,97921.09
2022-12-03T04:32:05.336Z,97917.31
2022-12-03T04:34:32.008Z,97926.81
2022-12-03T04:36:58.633Z,97923.31
2022-12-03T04:39:25.290Z,97924.28
2022-12-03T04:41:51.936Z,97920.13
2022-12-03T04:44:18.620Z,97922.06
2022-12-03T04:46:45.257Z,97915.06
2022-12-03T04:49:11.942Z,97921.25
2022-12-03T04:51:38.552Z,97931.69
2022-12-03T04:54:05.233Z,97927.00
2022-12-03T04:56:31.898Z,97926.84
2022-12-03T04:58:58.555Z,97928.19
2022-12-03T05:01:25.228Z,97933.34
2022-12-03T05:03:51.946Z,97933.28
2022-12-03T05:06:18.547Z,97926.16
2022-12-03T05:08:45.148Z,97929.53
2022-12-03T05:11:11.839Z,97929.53
2022-12-03T05:13:38.500Z,97928.72
2022-12-03T05:16:05.145Z,97927.00
2022-12-03T05:18:31.877Z,97923.53
2022-12-03T05:20:58.476Z,97932.56
2022-12-03T05:23:25.136Z,97929.44
2022-12-03T05:25:51.746Z,97921.91
2022-12-03T05:28:18.401Z,97924.28
2022-12-03T05:30:45.068Z,97921.47
2022-12-03T05:33:11.716Z,97925.00
2022-12-03T05:35:38.341Z,97917.66
2022-12-03T05:38:04.987Z,97920.97
2022-12-03T05:40:31.624Z,97921.59
2022-12-03T05:42:58.301Z,97924.00
2022-12-03T05:45:24.970Z,97927.44
2022-12-03T05:47:51.684Z,97929.03
2022-12-03T05:50:18.315Z,97920.28
2022-12-03T05:52:45.089Z,97930.75
2022-12-03T05:55:11.735Z,97926.81
2022-12-03T05:57:38.379Z,97930.34
2022-12-03T06:00:04.995Z,97915.88
2022-12-03T06:02:31.697Z,97921.09
2022-12-03T06:04:58.432Z,97919.88
2022-12-03T06:07:25.053Z,97922.03
2022-12-03T06:09:51.794Z,97934.97
2022-12-03T06:12:18.447Z,97934.88
2022-12-03T06:14:45.043Z,97930.56
2022-12-03T06:17:11.663Z,97935.56
2022-12-03T06:19:38.340Z,97933.84
2022-12-03T06:22:04.944Z,97936.56
2022-12-03T06:24:31.571Z,97933.00
2022-12-03T06:26:58.262Z,97928.91
2022-12-03T06:29:24.901Z,97926.44
2022-12-03T06:31:51.544Z,97936.19
2022-12-03T06:34:18.197Z,97930.84
2022-12-03T06:36:44.854Z,97928.94
2022-12-03T06:39:11.566Z,97931.56
2022-12-03T06:41:38.203Z,97925.50
2022-12-03T06:44:04.871Z,97927.09
2022-12-03T06:46:31.598Z,97926.25
2022-12-03T06:48:58.242Z,97932.53
2022-12-03T06:51:24.863Z,97933.97
2022-12-03T06:53:51.546Z,97933.97
2022-12-03T06:56:22.057Z,97936.75
2022-12-03T06:58:49.230Z,97943.25
2022-12-03T07:01:15.938Z,97947.31
2022-12-03T07:03:42.564Z,97940.00
2022-12-03T07:06:09.156Z,97958.13
2022-12-03T07:08:35.823Z,97961.28
2022-12-03T07:11:02.467Z,97961.63
2022-12-03T07:13:29.136Z,97964.78
2022-12-03T07:15:55.792Z,97960.22
2022-12-03T07:18:22.521Z,97966.53
2022-12-03T07:20:49.106Z,97970.66
2022-12-03T07:23:15.771Z,97967.81
2022-12-03T07:25:42.440Z,97966.53
2022-12-03T07:28:09.078Z,97968.25
2022-12-03T07:30:35.775Z,97965.25
2022-12-03T07:33:02.463Z,97962.69
2022-12-03T07:35:29.148Z,97960.44
2022-12-03T07:37:55.798Z,97959.09
2022-12-03T07:40:22.392Z,97962.28
2022-12-03T07:42:49.070Z,97955.19
2022-12-03T07:45:15.712Z,97954.06
2022-12-03T07:47:42.320Z,97953.03
2022-12-03T07:50:08.975Z,97953.44
2022-12-03T07:52:35.596Z,97952.84
2022-12-03T07:55:02.225Z,97959.63
2022-12-03T07:57:28.870Z,97953.16
2022-12-03T07:59:55.622Z,97949.94
2022-12-03T08:02:22.274Z,97958.19
2022-12-03T08:04:48.944Z,97959.91
2022-12-03T08:07:15.602Z,97960.44
2022-12-03T08:09:42.276Z,97962.63
2022-12-03T08:12:08.888Z,97963.69
2022-12-03T08:14:35.508Z,97958.56
2022-12-03T08:17:02.147Z,97959.25
2022-12-03T08:19:28.782Z,97960.75
2022-12-03T08:22:01.110Z,97965.00
2022-12-03T08:24:28.169Z,97967.94
2022-12-03T08:26:54.853Z,97963.16
2022-12-03T08:29:21.472Z,97970.91
2022-12-03T08:31:48.142Z,97971.88
2022-12-03T08:34:14.802Z,97968.56
2022-12-03T08:36:41.425Z,97972.06
2022-12-03T08:39:08.083Z,97980.31
2022-12-03T08:41:34.769Z,97976.19
2022-12-03T08:44:01.369Z,97974.13
2022-12-03T08:46:28.030Z,97978.31
2022-12-03T08:48:54.703Z,97975.09
2022-12-03T08:51:21.302Z,97973.69
2022-12-03T08:53:47.890Z,97979.81
2022-12-03T08:56:14.637Z,97975.84
2022-12-03T08:58:41.265Z,97969.03
2022-12-03T09:01:08.014Z,97971.56
2022-12-03T09:03:34.729Z,97981.28
2022-12-03T09:06:01.415Z,97977.38
2022-12-03T09:08:28.039Z,97976.75
2022-12-03T09:10:54.663Z,97977.50
2022-12-03T09:13:21.342Z,97976.84
2022-12-03T09:15:47.992Z,97971.53
2022-12-03T09:18:14.677Z,97968.38
2022-12-03T09:20:41.332Z,97964.69
2022-12-03T09:23:08.026Z,97957.72
2022-12-03T09:25:34.643Z,97963.22
2022-12-03T09:28:01.299Z,97967.66
2022-12-03T09:30:27.932Z,97963.16
2022-12-03T09:32:54.533Z,97970.16
2022-12-03T09:35:21.158Z,97962.78
2022-12-03T09:37:47.759Z,97964.91
2022-12-03T09:40:14.391Z,97961.28
2022-12-03T09:42:41.030Z,97955.56
2022-12-03T09:45:07.695Z,97957.69
2022-12-03T09:47:34.296Z,97955.28
2022-12-03T09:50:00.945Z,97947.34
2022-12-03T09:52:27.587Z,97951.47
2022-12-03T09:54:54.748Z,97952.84
2022-12-03T09:57:21.641Z,97947.72
2022-12-03T09:59:48.274Z,97949.72
2022-12-03T10:02:14.908Z,97952.22
2022-12-03T10:04:41.580Z,97948.25
2022-12-03T10:07:08.315Z,97950.06
2022-12-03T10:09:34.954Z,97951.88
2022-12-03T10:12:01.587Z,97952.53
2022-12-03T10:14:43.996Z,97941.63
2022-12-03T10:17:10.746Z,97939.41
2022-12-03T10:19:37.444Z,97935.75
2022-12-03T10:22:04.110Z,97933.81
2022-12-03T10:24:30.780Z,97931.94
2022-12-03T10:26:57.530Z,97922.19
2022-12-03T10:29:29.683Z,97927.63
2022-12-03T10:31:59.860Z,97919.53
2022-12-03T10:34:26.528Z,97919.81
2022-12-03T10:36:53.130Z,97918.50
2022-12-03T10:39:19.811Z,97913.09
2022-12-03T10:41:46.479Z,97910.75
2022-12-03T10:44:13.146Z,97915.13
2022-12-03T10:46:39.914Z,97911.38
2022-12-03T10:49:06.572Z,97912.50
2022-12-03T10:51:33.191Z,97915.47
2022-12-03T10:53:59.841Z,97903.31
2022-12-03T10:56:26.463Z,97904.22
2022-12-03T10:58:53.122Z,97910.63
2022-12-03T11:01:19.835Z,97903.41
2022-12-03T11:03:46.749Z,97908.97
2022-12-03T11:06:13.409Z,97909.59
2022-12-03T11:08:40.045Z,97904.84
2022-12-03T11:11:06.687Z,97906.09
2022-12-03T11:13:33.359Z,97914.16
2022-12-03T11:16:00.181Z,97911.03
2022-12-03T11:18:26.829Z,97906.13
2022-12-03T11:20:53.482Z,97897.78
2022-12-03T11:23:20.085Z,97895.38
2022-12-03T11:25:46.797Z,97891.13
2022-12-03T11:28:13.453Z,97885.25
2022-12-03T11:30:40.235Z,97885.84
2022-12-03T11:33:06.913Z,97878.44
2022-12-03T11:35:33.566Z,97890.66
2022-12-03T11:38:00.189Z,97886.94
2022-12-03T11:40:27.312Z,97893.50
2022-12-03T11:42:53.930Z,97891.28
2022-12-03T11:45:20.599Z,97890.66
2022-12-03T11:47:47.243Z,97885.91
2022-12-03T11:50:13.983Z,97885.50
2022-12-03T11:52:40.597Z,97877.31
2022-12-03T11:55:07.391Z,97872.66
2022-12-03T11:57:34.014Z,97873.72
2022-12-03T12:00:00.681Z,97872.16
2022-12-03T12:02:27.408Z,97870.44
2022-12-03T12:04:54.051Z,97870.75
2022-12-03T12:07:20.720Z,97865.88
2022-12-03T12:09:47.359Z,97869.31
2022-12-03T12:12:14.043Z,97875.19
2022-12-03T12:14:40.692Z,97870.81
2022-12-03T12:17:07.343Z,97866.25
2022-12-03T12:19:33.937Z,97857.63
2022-12-03T12:22:00.643Z,97859.56
2022-12-03T12:24:27.272Z,97862.53
2022-12-03T12:26:54.077Z,97862.72
2022-12-03T12:29:20.690Z,97862.88
2022-12-03T12:31:52.238Z,97860.09
2022-12-03T12:34:20.562Z,97854.03
2022-12-03T12:36:47.221Z,97856.34
2022-12-03T12:39:13.900Z,97851.22
2022-12-03T12:41:40.599Z,97841.41
2022-12-03T12:44:07.274Z,97846.00
2022-12-03T12:46:47.699Z,97840.38
2022-12-03T12:49:16.180Z,97840.28
2022-12-03T12:51:42.923Z,97844.84
2022-12-03T12:54:09.523Z,97848.13
2022-12-03T12:56:36.178Z,97840.09
2022-12-03T12:59:02.835Z,97836.97
2022-12-03T13:01:29.534Z,97829.03
2022-12-03T13:03:56.247Z,97829.06
2022-12-03T13:06:22.855Z,97824.50
2022-12-03T13:08:49.573Z,97828.34
2022-12-03T13:11:16.263Z,97820.28
2022-12-03T13:13:44.190Z,97824.34
2022-12-03T13:16:11.118Z,97819.16
2022-12-03T13:18:37.772Z,97813.91
2022-12-03T13:23:48.870Z,97826.38
2022-12-03T13:26:31.754Z,97830.44
2022-12-03T13:29:02.182Z,97827.16
2022-12-03T13:31:28.895Z,97827.47
2022-12-03T13:33:55.553Z,97827.28
2022-12-03T13:36:22.244Z,97830.59
2022-12-03T13:38:48.900Z,97828.16
2022-12-03T13:41:15.544Z,97829.66
2022-12-03T13:43:44.444Z,97834.06
2022-12-03T13:46:11.391Z,97826.88
2022-12-03T13:48:38.123Z,97813.72
2022-12-03T13:51:04.764Z,97810.44
2022-12-03T13:53:31.398Z,97812.97
2022-12-03T13:55:58.062Z,97819.22
2022-12-03T13:58:24.717Z,97819.94
2022-12-03T14:00:51.705Z,97816.84
2022-12-03T14:03:18.405Z,97823.94
2022-12-03T14:05:45.011Z,97820.63
2022-12-03T14:08:11.693Z,97827.19
2022-12-03T14:10:38.381Z,97823.13
2022-12-03T14:13:05.012Z,97818.38
2022-12-03T14:15:31.600Z,97822.25
2022-12-03T14:17:58.191Z,97828.44
2022-12-03T14:20:24.851Z,97827.63
2022-12-03T14:22:56.364Z,97832.88
2022-12-03T14:25:25.818Z,97823.22
2022-12-03T14:27:52.460Z,97823.59
2022-12-03T14:30:19.143Z,97828.00
2022-12-03T14:32:45.741Z,97828.03
2022-12-03T14:35:12.375Z,97827.19
2022-12-03T14:37:39.056Z,97826.53
2022-12-03T14:40:05.675Z,97837.66
2022-12-03T14:42:32.358Z,97834.75
2022-12-03T14:44:58.997Z,97832.28
2022-12-03T14:47:25.633Z,97837.97
2022-12-03T14:49:52.848Z,97834.53
2022-12-03T14:52:19.809Z,97841.44
2022-12-03T14:54:46.441Z,97843.75
2022-12-03T14:57:13.055Z,97845.88
2022-12-03T14:59:39.686Z,97845.91
2022-12-03T15:02:06.359Z,97853.94
2022-12-03T15:04:33.082Z,97856.63
2022-12-03T15:06:59.781Z,97853.69
2022-12-03T15:09:26.384Z,97854.00
2022-12-03T15:11:53.065Z,97851.03
2022-12-03T15:14:19.722Z,97853.34
2022-12-03T15:16:46.459Z,97847.47
2022-12-03T15:19:13.183Z,97843.84
2022-12-03T15:21:39.828Z,97850.06
2022-12-03T15:24:06.474Z,97849.63
2022-12-03T15:26:33.147Z,97848.75
2022-12-03T15:28:59.774Z,97847.13
2022-12-03T15:31:26.505Z,97854.84
2022-12-03T15:33:53.178Z,97852.72
2022-12-03T15:36:19.798Z,97855.16
2022-12-03T15:38:46.418Z,97850.25
2022-12-03T15:41:13.050Z,97856.47
2022-12-03T15:43:39.739Z,97851.38
2022-12-03T15:46:06.457Z,97856.63
2022-12-03T15:48:33.142Z,97861.06
2022-12-03T15:50:59.748Z,97851.63
2022-12-03T15:53:26.396Z,97851.94
2022-12-03T15:55:53.046Z,97853.28
2022-12-03T15:58:19.694Z,97859.34
2022-12-03T16:00:46.340Z,97861.84
2022-12-03T16:03:13.109Z,97856.44
2022-12-03T16:05:39.986Z,97857.13
2022-12-03T16:08:06.662Z,97857.13
2022-12-03T16:10:33.377Z,97849.72
2022-12-03T16:13:00.049Z,97854.66
2022-12-03T16:15:27.429Z,97853.69
2022-12-03T16:17:54.213Z,97848.59
2022-12-03T16:20:20.846Z,97853.97
2022-12-03T16:22:47.588Z,97853.88
2022-12-03T16:25:14.197Z,97864.53
2022-12-03T16:27:40.838Z,97861.31
2022-12-03T16:30:07.425Z,97852.53
2022-12-03T16:32:34.053Z,97854.06
2022-12-03T16:35:00.695Z,97854.91
2022-12-03T16:37:27.376Z,97855.78
2022-12-03T16:39:54.258Z,97853.69
2022-12-03T16:42:21.017Z,97856.91
2022-12-03T16:44:47.615Z,97853.00
2022-12-03T16:47:14.277Z,97857.94
2022-12-03T16:49:40.892Z,97859.88
2022-12-03T16:52:07.480Z,97862.50
2022-12-03T16:54:34.116Z,97861.31
2022-12-03T16:57:00.991Z,97855.31
2022-12-03T16:59:27.663Z,97860.09
2022-12-03T17:01:54.313Z,97861.22
2022-12-03T17:04:21.024Z,97858.81
2022-12-03T17:06:47.649Z,97852.69
2022-12-03T17:09:14.311Z,97858.75
2022-12-03T17:11:40.962Z,97865.97
2022-12-03T17:14:07.598Z,97864.16
2022-12-03T17:16:34.328Z,97863.84
2022-12-03T17:19:00.933Z,97860.59
2022-12-03T17:21:30.844Z,97862.84
2022-12-03T17:24:00.271Z,97869.66
2022-12-03T17:26:26.936Z,97874.38
2022-12-03T17:28:53.537Z,97873.50
2022-12-03T17:31:20.184Z,97869.53
2022-12-03T17:33:46.874Z,97868.34
2022-12-03T17:36:13.533Z,97869.16
2022-12-03T17:38:40.186Z,97865.91
2022-12-03T17:41:06.809Z,97874.44
2022-12-03T17:43:33.663Z,97873.44
2022-12-03T17:46:00.323Z,97875.44
2022-12-03T17:48:27.050Z,97875.84
2022-12-03T17:50:53.636Z,97879.06
2022-12-03T17:53:20.244Z,97879.06
2022-12-03T17:55:46.854Z,97871.84
2022-12-03T17:58:13.493Z,97881.13
2022-12-03T18:00:40.122Z,97883.59
2022-12-03T18:03:06.858Z,97876.38
2022-12-03T18:05:33.451Z,97876.75
2022-12-03T18:08:00.153Z,97877.13
2022-12-03T18:10:26.822Z,97885.31
2022-12-03T18:12:58.322Z,97876.75
2022-12-03T18:15:28.069Z,97884.53
2022-12-03T18:17:54.738Z,97880.59
2022-12-03T18:20:21.379Z,97884.66
2022-12-03T18:22:48.027Z,97882.53
2022-12-03T18:25:14.697Z,97880.78
2022-12-03T18:27:41.356Z,97883.66
2022-12-03T18:30:08.026Z,97891.66
2022-12-03T18:32:34.645Z,97884.78
2022-12-03T18:35:01.332Z,97886.13
2022-12-03T18:37:27.991Z,97884.84
2022-12-03T18:39:54.960Z,97881.97
2022-12-03T18:42:21.923Z,97877.78
2022-12-03T18:44:49.988Z,97878.34
2022-12-03T18:47:16.879Z,97874.94
2022-12-03T18:49:43.554Z,97869.22
2022-12-03T18:52:10.222Z,97873.81
2022-12-03T18:54:36.931Z,97876.78
2022-12-03T18:57:03.598Z,97881.22
2022-12-03T18:59:30.237Z,97877.94
2022-12-03T19:01:56.895Z,97885.47
2022-12-03T19:04:23.532Z,97887.22
2022-12-03T19:06:50.237Z,97880.38
2022-12-03T19:09:16.877Z,97888.47
2022-12-03T19:11:43.498Z,97886.09
2022-12-03T19:14:10.138Z,97883.06
2022-12-03T19:16:36.863Z,97880.97
2022-12-03T19:19:03.539Z,97888.03
2022-12-03T19:21:33.651Z,97891.50
2022-12-03T19:24:23.404Z,97890.78
2022-12-03T19:26:47.277Z,97884.75
2022-12-03T19:29:13.917Z,97886.19
2022-12-03T19:31:40.626Z,97886.31
2022-12-03T19:34:07.369Z,97892.56
2022-12-03T19:36:33.974Z,97887.91
2022-12-03T19:39:00.656Z,97895.31
2022-12-03T19:41:27.358Z,97897.09
2022-12-03T19:43:54.092Z,97898.91
2022-12-03T19:46:20.758Z,97898.78
2022-12-03T19:48:47.436Z,97892.28
2022-12-03T19:51:33.497Z,97894.41
2022-12-03T19:54:00.767Z,97888.19
2022-12-03T19:56:27.416Z,97892.28
2022-12-03T19:58:54.139Z,97888.53
2022-12-03T20:01:20.875Z,97891.16
2022-12-03T20:03:47.535Z,97889.81
2022-12-03T20:06:14.160Z,97896.06
2022-12-03T20:08:40.853Z,97889.00
2022-12-03T20:11:07.512Z,97887.88
2022-12-03T20:13:36.587Z,97885.44
2022-12-03T20:16:03.385Z,97891.69
2022-12-03T20:18:31.147Z,97893.00
2022-12-03T20:20:57.803Z,97894.97
2022-12-03T20:23:24.489Z,97893.81
2022-12-03T20:25:51.094Z,97889.75
2022-12-03T20:28:17.787Z,97892.34
2022-12-03T20:30:44.402Z,97894.00
2022-12-03T20:33:11.070Z,97898.25
2022-12-03T20:35:37.777Z,97896.94
2022-12-03T20:38:04.396Z,97900.78
2022-12-03T20:40:31.040Z,97892.47
2022-12-03T20:42:57.653Z,97884.84
2022-12-03T20:45:24.286Z,97895.94
2022-12-03T20:47:50.943Z,97891.16
2022-12-03T20:50:17.595Z,97884.16
2022-12-03T20:53:03.313Z,97883.44
2022-12-03T20:55:30.814Z,97888.63
2022-12-03T20:57:57.451Z,97886.66
2022-12-03T21:00:24.060Z,97888.63
2022-12-03T21:02:50.760Z,97889.25
2022-12-03T21:05:17.433Z,97882.41
2022-12-03T21:07:44.639Z,97880.78
2022-12-03T21:10:11.333Z,97878.97
2022-12-03T21:12:38.013Z,97883.03
2022-12-03T21:15:04.680Z,97890.41
2022-12-03T21:17:31.361Z,97884.69
2022-12-03T21:19:59.035Z,97884.75
2022-12-03T21:22:26.040Z,97884.44
2022-12-03T21:24:52.699Z,97885.75
2022-12-03T21:27:21.846Z,97890.66
2022-12-03T21:29:48.756Z,97880.19
2022-12-03T21:32:15.365Z,97884.78
2022-12-03T21:34:41.976Z,97884.78
2022-12-03T21:37:08.582Z,97878.28
2022-12-03T21:39:35.260Z,97874.94
2022-12-03T21:42:34.800Z,97882.81
2022-12-03T21:44:48.574Z,97880.41
2022-12-03T21:47:15.310Z,97883.97
2022-12-03T21:49:42.074Z,97879.56
2022-12-03T21:52:08.744Z,97868.44
2022-12-03T21:54:35.433Z,97864.97
2022-12-03T21:57:02.090Z,97867.94
2022-12-03T21:59:28.753Z,97867.63
2022-12-03T22:01:55.476Z,97860.09
2022-12-03T22:04:22.108Z,97860.88
2022-12-03T22:06:48.746Z,97857.03
2022-12-03T22:09:15.422Z,97865.41
2022-12-03T22:11:42.094Z,97867.09
2022-12-03T22:14:08.724Z,97867.94
2022-12-03T22:16:35.442Z,97870.75
2022-12-03T22:19:02.140Z,97874.50
2022-12-03T22:21:28.816Z,97868.41
2022-12-03T22:23:55.465Z,97871.16
2022-12-03T22:26:22.156Z,97870.56
2022-12-03T22:28:48.775Z,97865.16
2022-12-03T22:31:15.515Z,97862.41
2022-12-03T22:33:42.235Z,97869.00
2022-12-03T22:36:10.305Z,97863.00
2022-12-03T22:38:38.761Z,97859.31
2022-12-03T22:41:05.343Z,97860.56
2022-12-03T22:43:31.995Z,97853.84
2022-12-03T22:45:58.731Z,97850.00
2022-12-03T22:48:25.442Z,97852.94
2022-12-03T22:50:52.100Z,97850.03
2022-12-03T22:53:18.732Z,97846.56
2022-12-03T22:55:45.348Z,97837.09
2022-12-03T22:58:11.931Z,97837.44
2022-12-03T23:00:38.601Z,97842.84
2022-12-03T23:03:05.332Z,97844.16
2022-12-03T23:05:32.062Z,97836.97
2022-12-03T23:07:58.760Z,97831.25
2022-12-03T23:10:28.363Z,97827.50
2022-12-03T23:12:59.087Z,97830.09
2022-12-03T23:15:25.716Z,97825.69
2022-12-03T23:17:52.370Z,97828.81
2022-12-03T23:20:19.009Z,97824.25
2022-12-03T23:22:45.707Z,97822.25
2022-12-03T23:25:12.335Z,97825.19
2022-12-03T23:27:39.014Z,97820.81
2022-12-03T23:30:05.650Z,97815.22
2022-12-03T23:32:32.238Z,97816.72
2022-12-03T23:34:58.875Z,97811.78
2022-12-03T23:37:25.509Z,97806.75
2022-12-03T23:39:52.272Z,97798.41
2022-12-03T23:42:19.151Z,97791.34
2022-12-03T23:44:45.782Z,97787.38
2022-12-03T23:47:12.438Z,97780.19
2022-12-03T23:49:39.099Z,97800.00
2022-12-03T23:52:05.924Z,97802.66
2022-12-03T23:54:32.646Z,97792.84
2022-12-03T23:56:59.260Z,97789.06
2022-12-03T23:59:25.888Z,97795.25
